x

South Santa Rosa Is. Ca (46069) Wave Buoy

4:50 - Thu 24th Apr 2014 All times are PDT. -7 hours from GMT.

  • Sig Wave height 6.6ft
  • Peak Period 12s
  • Average Period 6s
  • Wind
    20mph, 25mph gusts
  • Sea Temp 56°f
  • Aire Temp 56°f
  • Sea Pressure 1014.5mb
  • South Santa Rosa Is. Ca
  • South Santa Rosa Is. Ca

More Historic Weather Station data

Upgrade to MSW Pro to gain access to the past 30 days of data for over 8000 Wavebouys and Weather Stations around the globe.

Join Pro

Comparision Forecast

View Surf forecast
   
jue 04/24 4:50 6.5ft 12s 6s 20 25 mph 1014.5mb 56f 56f
3:50 7ft 11s 6s 16 18 mph 1015.1mb 56f 56f
2:50 6.5ft 11s 6s 18 20 mph 1015.3mb 56f 56f
1:50 6.5ft 12s 6s 18 22 mph 1015.4mb 56f 56f
12:50 7ft 12s 6s 18 20 mph 1015.9mb 56f 56f
11:50 6.5ft 8s 5s 20 25 mph 1016.5mb 56f 56f
10:50 7.5ft 8s 6s 20 22 mph 1016.3mb 56f 56f
8:50 8.5ft 13s 7s 20 25 mph 1015.8mb 56f 56f
7:50 7.5ft 8s 6s 20 22 mph 1015.3mb 56f 56f
6:50 9.5ft 12s 7s 22 25 mph 1014.5mb 56f 55f
5:50 8ft 11s 6s 22 27 mph 1013.7mb 56f 55f
4:50 10ft 12s 7s 22 27 mph 1013.5mb 56f 55f
3:50 9ft 8s 7s 22 27 mph 1013.2mb 56f 56f
2:50 9ft 13s 7s 25 29 mph 1013.4mb 56f 55f
1:50 8.5ft 14s 6s 25 31 mph 1013.8mb 55f 55f
12:50 8.5ft 8s 6s 27 31 mph 1014.2mb 55f 55f
mié 04/23 11:50 9ft 8s 6s 27 29 mph 1014.4mb 55f 55f
10:50 10ft 9s 6s 27 34 mph 1014.6mb 55f 55f
9:50 10ft 8s 6s 31 40 mph 1013.6mb 55f 55f
8:50 10ft 8s 6s 31 38 mph 1013.5mb 55f 56f
7:50 11ft 8s 6s 29 38 mph 1013.6mb 55f 56f
6:50 10ft 8s 6s 31 38 mph 1013.6mb 56f 56f
5:50 9ft 12s 6s 29 34 mph 1014.3mb 56f 55f
3:50 9ft 8s 6s 27 34 mph 1014.6mb 56f 56f
2:50 9ft 8s 6s 29 36 mph 1015.1mb 56f 55f
1:50 9.5ft 7s 6s 29 36 mph 1015.8mb 56f 55f
12:50 10ft 12s 6s 29 38 mph 1016mb 56f 55f
11:50 9ft 8s 6s 31 36 mph 1016.1mb 56f 55f
10:50 10ft 8s 6s 27 34 mph 1016.5mb 56f 55f
9:50 10ft 8s 6s 27 31 mph 1016.5mb 56f 55f
8:50 10.5ft 8s 6s 27 34 mph 1016.1mb 56f 55f
7:50 11ft 8s 7s 31 38 mph 1015mb 56f 55f
6:50 10ft 8s 6s 31 38 mph 1014.7mb 56f 54f
5:50 11ft 12s 6s 34 40 mph 1014mb 56f 54f
4:50 12.5ft 9s 7s 31 40 mph 1014.1mb 56f 55f
3:50 12ft 12s 7s 29 36 mph 1014.4mb 57f 55f
2:50 12.5ft 9s 7s 34 40 mph 1014.7mb 57f 55f
1:50 12ft 8s 7s 34 40 mph 1015mb 57f 55f
12:50 12ft 9s 7s 31 38 mph 1015.1mb 57f 55f
mar 04/22 11:50 12.5ft 8s 7s 34 40 mph 1015.2mb 57f 56f
10:50 13ft 8s 7s 31 38 mph 1015.1mb 57f 56f
9:50 12.5ft 8s 7s 31 40 mph 1015mb 57f 56f
8:50 12ft 9s 6s 34 38 mph 1015.1mb 57f 56f
7:50 13.5ft 9s 7s 34 40 mph 1014.5mb 57f 56f
6:50 13ft 13s 7s 31 40 mph 1014.4mb 57f 56f
5:50 11.5ft 8s 6s 31 38 mph 1014.4mb 57f 56f
4:50 12ft 14s 7s 31 38 mph 1014.5mb 57f 56f
3:50 11.5ft 13s 6s 27 31 mph 1014.9mb 57f 56f
2:50 11.5ft 13s 7s 29 36 mph 1014.9mb 57f 56f
1:50 11ft 14s 6s 29 36 mph 1015.7mb 57f 56f
12:50 10.5ft 13s 6s 29 36 mph 1016.4mb 57f 56f
11:50 10ft 12s 6s 31 38 mph 1016.5mb 58f 56f
10:50 9ft 14s 6s 29 34 mph 1016.9mb 58f 55f
9:50 8.5ft 14s 6s 31 36 mph 1016.5mb 58f 55f
8:50 8.5ft 13s 7s 27 34 mph 1016.3mb 58f 56f
7:50 8.5ft 14s 7s 22 27 mph 1016.3mb 58f 57f
6:50 8ft 13s 6s 22 29 mph 1015.7mb 58f 57f
5:50 9ft 14s 6s 29 36 mph 1015mb 58f 56f
4:50 9.5ft 13s 7s 27 34 mph 1014.8mb 58f 56f
3:50 8ft 13s 6s 27 31 mph 1014.7mb 58f 56f
2:50 9ft 13s 7s 25 29 mph 1014.7mb 58f 56f
1:50 9.5ft 14s 8s 25 29 mph 1014.7mb 58f 57f
12:50 9ft 13s 7s 25 29 mph 1014.9mb 59f 57f
lun 04/21 11:50 9.5ft 14s 8s 22 27 mph 1015.1mb 59f 58f
10:50 9ft 14s 8s 18 22 mph 1015.2mb 59f 58f
9:50 10.5ft 14s 8s 22 27 mph 1015.5mb 59f 57f
8:50 9ft 14s 7s 25 29 mph 1015.3mb 59f 58f
7:50 9ft 14s 8s 22 27 mph 1015.2mb 60f 58f
6:50 11ft 14s 10s 11 16 mph 1014.8mb 60f 57f
5:50 10.5ft 15s 11s 16 18 mph 1015.1mb 61f 57f
4:50 9.5ft 14s 10s 11 16 mph 1015.6mb 62f 60f
3:50 12.5ft 15s 11s 2 7 mph 1015.7mb 61f 59f
2:50 11ft 15s 11s 4
mph
1016.6mb 60f 58f
1:50 10.5ft 14s 10s 2 7 mph 1017.3mb 59f 58f
12:50 11ft 15s 11s 7 11 mph 1017.7mb 59f 58f
11:50 11.5ft 15s 10s 9 11 mph 1018mb 59f 58f
10:50 12ft 15s 11s 11 16 mph 1017.7mb 58f 58f
9:50 12ft 15s 11s 11 13 mph 1017.2mb 58f 58f
8:50 12ft 15s 11s 9 11 mph 1016.8mb 58f 58f
7:50 11ft 15s 11s 7 9 mph 1016.8mb 58f 58f
6:50 11ft 16s 11s 7 9 mph 1016.2mb 58f 57f
5:50 11ft 14s 11s 4 9 mph 1016.1mb 58f 57f
4:50 10.5ft 15s 10s 7 9 mph 1015.8mb 58f 57f
3:50 12ft 15s 11s 13 18 mph 1016.1mb 58f 57f
2:50 12ft 15s 10s 16 18 mph 1016mb 58f 57f
1:50 11ft 15s 10s 18 20 mph 1016.5mb 58f 57f